Time;durP1;ratioP1;P1;durP2;ratioP2;P2;SDS_P1;SDS_P2;PMS_P1;PMS_P2;Temp;Humidity;BMP_temperature;BMP_pressure;BME280_temperature;BME280_humidity;BME280_pressure;Samples;Min_cycle;Max_cycle;Signal;HPM_P1;HPM_P2
2023/11/03 00:00:19;;;;;;;0.20;0.20;;;7.30;99.90;;;;;;5063636;28;20037;-72
2023/11/03 00:02:46;;;;;;;0.20;0.20;;;7.30;99.90;;;;;;5059497;28;20037;-72
2023/11/03 00:05:12;;;;;;;0.20;0.20;;;7.30;99.90;;;;;;5062406;28;20033;-72
2023/11/03 00:07:39;;;;;;;0.28;0.28;;;7.30;99.90;;;;;;5054455;28;20045;-70
2023/11/03 00:10:09;;;;;;;1.40;1.05;;;7.40;94.40;;;;;;5062522;28;20033;-70
2023/11/03 00:12:37;;;;;;;0.40;0.40;;;7.40;85.90;;;;;;5061017;28;20041;-70
2023/11/03 00:15:09;;;;;;;7.72;1.38;;;7.40;74.90;;;;;;5049950;28;20386;-71
2023/11/03 00:17:38;;;;;;;0.17;0.17;;;7.30;71.60;;;;;;5063222;28;20055;-70
2023/11/03 00:20:06;;;;;;;0.22;0.22;;;7.30;65.80;;;;;;5063175;28;20068;-70
2023/11/03 00:22:32;;;;;;;1.88;0.95;;;7.20;76.80;;;;;;5056908;28;20033;-72
2023/11/03 00:24:59;;;;;;;0.10;0.10;;;7.20;90.90;;;;;;5063924;28;20037;-74
2023/11/03 00:27:25;;;;;;;0.10;0.10;;;7.10;99.60;;;;;;5050701;28;20036;-72
2023/11/03 00:29:52;;;;;;;0.20;0.20;;;7.10;99.90;;;;;;5065082;28;20564;-72
2023/11/03 00:32:19;;;;;;;0.30;0.30;;;7.10;99.90;;;;;;5061919;28;20497;-72
2023/11/03 00:34:45;;;;;;;3.72;1.15;;;7.00;99.90;;;;;;5059214;28;20035;-72
2023/11/03 00:37:12;;;;;;;0.10;0.10;;;7.00;99.90;;;;;;5061423;28;20039;-72
2023/11/03 00:39:40;;;;;;;5.93;1.13;;;6.90;99.90;;;;;;5062356;28;20059;-72
2023/11/03 00:42:06;;;;;;;0.63;0.63;;;6.90;99.90;;;;;;5048382;28;20044;-73
2023/11/03 00:44:34;;;;;;;1.63;0.45;;;6.90;99.90;;;;;;5059331;28;20446;-72
2023/11/03 00:47:00;;;;;;;1.25;1.02;;;6.80;99.90;;;;;;5048281;28;20045;-73
2023/11/03 00:49:26;;;;;;;0.10;0.10;;;6.80;99.90;;;;;;5050718;28;20043;-72
2023/11/03 00:51:52;;;;;;;0.20;0.20;;;6.80;99.90;;;;;;5062735;28;20029;-72
2023/11/03 00:54:19;;;;;;;0.10;0.10;;;6.80;99.90;;;;;;5061849;28;20890;-73
2023/11/03 00:56:45;;;;;;;0.10;0.10;;;6.80;99.90;;;;;;5062486;28;20461;-72
2023/11/03 00:59:11;;;;;;;0.20;0.20;;;6.70;99.90;;;;;;5044687;28;20041;-73
2023/11/03 01:01:38;;;;;;;0.30;0.30;;;6.70;99.90;;;;;;5056179;28;20480;-71
2023/11/03 01:04:05;;;;;;;0.20;0.20;;;6.60;99.90;;;;;;5053835;28;20409;-71
2023/11/03 01:06:31;;;;;;;0.10;0.10;;;6.60;99.90;;;;;;5057018;28;20037;-71
2023/11/03 01:08:57;;;;;;;0.10;0.10;;;6.60;99.90;;;;;;5047658;28;20385;-71
2023/11/03 01:11:24;;;;;;;0.30;0.30;;;6.50;99.90;;;;;;5047236;28;20029;-71
2023/11/03 01:13:51;;;;;;;0.10;0.10;;;6.50;99.90;;;;;;5064262;28;20047;-71
2023/11/03 01:16:17;;;;;;;0.20;0.20;;;6.50;99.90;;;;;;5061639;28;20039;-71
2023/11/03 01:18:45;;;;;;;0.22;0.22;;;6.40;99.90;;;;;;5061673;28;20032;-71
2023/11/03 01:21:18;;;;;;;0.13;0.13;;;6.40;99.90;;;;;;5058120;28;20047;-71
2023/11/03 01:23:47;;;;;;;0.25;0.25;;;6.50;99.90;;;;;;5065875;28;20033;-71
2023/11/03 01:26:14;;;;;;;0.47;0.47;;;6.50;99.90;;;;;;5047066;28;20032;-71
2023/11/03 01:28:41;;;;;;;0.10;0.10;;;6.60;99.90;;;;;;5059149;28;20029;-71
2023/11/03 01:31:10;;;;;;;0.20;0.20;;;6.80;99.90;;;;;;5058428;28;20103;-71
2023/11/03 01:33:41;;;;;;;0.10;0.10;;;6.70;99.90;;;;;;5063406;28;20032;-71
2023/11/03 01:36:08;;;;;;;;;;;6.70;99.90;;;;;;5067072;28;20472;-73
2023/11/03 01:38:34;;;;;;;0.30;0.30;;;6.70;99.90;;;;;;5061810;28;19920;-73
2023/11/03 01:41:04;;;;;;;0.43;0.30;;;6.70;99.90;;;;;;5056088;28;20056;-74
2023/11/03 01:43:30;;;;;;;0.25;0.25;;;6.70;99.90;;;;;;5050404;28;20025;-73
2023/11/03 01:45:58;;;;;;;0.10;0.10;;;6.60;99.90;;;;;;5051407;28;20029;-74
2023/11/03 01:48:26;;;;;;;0.20;0.20;;;6.70;99.90;;;;;;5055355;28;20764;-72
2023/11/03 01:50:54;;;;;;;0.10;0.10;;;6.80;99.90;;;;;;5055785;28;20490;-72
2023/11/03 01:53:21;;;;;;;0.50;0.50;;;6.80;99.90;;;;;;5060629;28;20025;-73
2023/11/03 01:55:47;;;;;;;0.10;0.10;;;6.90;99.90;;;;;;5073144;28;20037;-72
2023/11/03 01:58:14;;;;;;;0.47;0.45;;;7.10;99.90;;;;;;5053994;28;20402;-72
2023/11/03 02:00:41;;;;;;;0.10;0.10;;;7.00;99.90;;;;;;5046772;28;20061;-72
2023/11/03 02:03:07;;;;;;;0.20;0.20;;;7.10;99.90;;;;;;5047876;28;20048;-72
2023/11/03 02:05:33;;;;;;;0.10;0.10;;;7.20;97.10;;;;;;5066433;28;20047;-72
2023/11/03 02:08:00;;;;;;;0.20;0.20;;;7.20;93.20;;;;;;5061408;28;20052;-72
2023/11/03 02:10:26;;;;;;;0.10;0.10;;;7.20;83.90;;;;;;5058297;28;20493;-72
2023/11/03 02:12:52;;;;;;;2.92;1.38;;;7.20;72.70;;;;;;5058892;28;20036;-72
2023/11/03 02:15:18;;;;;;;0.32;0.32;;;7.30;62.10;;;;;;5043640;28;20067;-72
2023/11/03 02:17:44;;;;;;;0.20;0.20;;;7.30;71.30;;;;;;5066120;28;20396;-72
2023/11/03 02:20:11;;;;;;;0.20;0.20;;;7.30;56.90;;;;;;5057509;28;20490;-72
2023/11/03 02:22:38;;;;;;;0.10;0.10;;;7.30;57.40;;;;;;5059708;28;20048;-72
2023/11/03 02:25:04;;;;;;;0.10;0.10;;;7.30;47.20;;;;;;5059696;28;20383;-73
2023/11/03 02:27:30;;;;;;;0.68;0.68;;;7.40;31.40;;;;;;5060655;28;20520;-72
2023/11/03 02:29:57;;;;;;;0.82;0.45;;;7.40;30.60;;;;;;5061878;28;20033;-72
2023/11/03 02:32:23;;;;;;;0.28;0.28;;;7.40;23.30;;;;;;5059622;28;20292;-72
2023/11/03 02:34:49;;;;;;;0.50;0.32;;;7.40;18.70;;;;;;5060527;28;20497;-72
2023/11/03 02:37:16;;;;;;;0.20;0.20;;;7.50;23.40;;;;;;5036955;28;20024;-72
2023/11/03 02:39:42;;;;;;;0.30;0.30;;;7.50;19.00;;;;;;5058373;28;20044;-72
2023/11/03 02:42:08;;;;;;;0.63;0.60;;;7.60;9.70;;;;;;5062039;28;20354;-72
2023/11/03 02:44:34;;;;;;;0.10;0.10;;;7.60;1.00;;;;;;5061923;28;20044;-72
2023/11/03 02:47:00;;;;;;;0.20;0.20;;;7.70;1.00;;;;;;5061880;28;20377;-72
2023/11/03 02:49:27;;;;;;;0.85;0.43;;;7.70;1.00;;;;;;5059557;28;20616;-72
2023/11/03 02:51:53;;;;;;;0.10;0.10;;;7.80;1.00;;;;;;5061474;28;20032;-72
2023/11/03 02:54:20;;;;;;;0.10;0.10;;;7.80;1.00;;;;;;5059038;28;20032;-72
2023/11/03 02:56:46;;;;;;;0.57;0.45;;;7.90;1.00;;;;;;5048635;28;20043;-72
2023/11/03 02:59:12;;;;;;;0.30;0.30;;;7.90;1.00;;;;;;5037018;28;20045;-72
2023/11/03 03:01:40;;;;;;;0.30;0.30;;;8.00;1.00;;;;;;5060428;28;20496;-72
2023/11/03 03:04:07;;;;;;;2.63;1.27;;;8.00;1.00;;;;;;5059285;28;20033;-73
2023/11/03 03:06:33;;;;;;;0.10;0.10;;;8.00;1.00;;;;;;5060142;28;20029;-72
2023/11/03 03:08:59;;;;;;;4.20;0.90;;;8.00;1.00;;;;;;5059519;28;20508;-72
2023/11/03 03:11:25;;;;;;;1.10;0.73;;;8.00;1.00;;;;;;5063018;28;20060;-72
2023/11/03 03:13:51;;;;;;;0.17;0.17;;;8.10;1.00;;;;;;5057930;28;20028;-72
2023/11/03 03:16:20;;;;;;;1.65;0.90;;;8.00;1.00;;;;;;5058397;28;20051;-72
2023/11/03 03:18:46;;;;;;;0.10;0.10;;;8.00;1.00;;;;;;5039973;28;20033;-72
2023/11/03 03:21:19;;;;;;;0.10;0.10;;;8.10;1.00;;;;;;5064645;28;20067;-72
2023/11/03 03:23:46;;;;;;;0.45;0.45;;;8.00;1.00;;;;;;5047247;28;20386;-72
2023/11/03 03:26:12;;;;;;;0.30;0.30;;;8.10;1.00;;;;;;5056262;28;20025;-73
2023/11/03 03:28:38;;;;;;;0.20;0.20;;;8.10;1.00;;;;;;5059996;28;20033;-71
2023/11/03 03:31:05;;;;;;;0.10;0.10;;;8.10;1.00;;;;;;5055207;28;20505;-71
2023/11/03 03:33:31;;;;;;;0.10;0.10;;;8.10;1.00;;;;;;5065696;28;20043;-72
2023/11/03 03:35:57;;;;;;;0.10;0.10;;;8.10;99.90;;;;;;5060820;28;20040;-72
2023/11/03 03:38:24;;;;;;;0.20;0.20;;;8.10;99.90;;;;;;5037298;28;20040;-72
2023/11/03 03:40:50;;;;;;;0.10;0.10;;;8.20;99.90;;;;;;5045745;28;20056;-72
2023/11/03 03:43:16;;;;;;;0.10;0.10;;;8.20;99.90;;;;;;5058999;28;20036;-72
2023/11/03 03:45:43;;;;;;;0.10;0.10;;;8.20;99.90;;;;;;5061455;28;20052;-71
2023/11/03 03:48:09;;;;;;;0.20;0.20;;;8.20;99.90;;;;;;5063764;28;20028;-73
2023/11/03 03:50:35;;;;;;;0.20;0.20;;;8.20;99.90;;;;;;5059952;28;20036;-71
2023/11/03 03:53:01;;;;;;;0.10;0.10;;;8.20;99.90;;;;;;5064805;28;20029;-71
2023/11/03 03:55:27;;;;;;;11.15;0.82;;;8.20;99.90;;;;;;5064955;28;20036;-72
2023/11/03 03:57:54;;;;;;;0.50;0.50;;;8.30;99.90;;;;;;5061031;28;20393;-72
2023/11/03 04:00:20;;;;;;;0.30;0.30;;;8.30;99.90;;;;;;5061829;28;20063;-72
2023/11/03 04:02:46;;;;;;;2.28;0.85;;;8.30;99.90;;;;;;5063399;28;20037;-72
2023/11/03 04:05:13;;;;;;;8.60;1.95;;;8.30;99.90;;;;;;5066827;28;20025;-71
2023/11/03 04:07:39;;;;;;;0.10;0.10;;;8.30;99.90;;;;;;5059708;28;20049;-71
2023/11/03 04:10:06;;;;;;;0.10;0.10;;;8.30;99.90;;;;;;5060856;28;20059;-72
2023/11/03 04:12:32;;;;;;;0.10;0.10;;;8.30;99.90;;;;;;5065650;28;20044;-72
2023/11/03 04:14:58;;;;;;;0.20;0.20;;;8.40;99.90;;;;;;5052071;28;20048;-72
2023/11/03 04:17:24;;;;;;;0.95;0.90;;;8.30;99.90;;;;;;5061782;28;20059;-72
2023/11/03 04:19:51;;;;;;;0.10;0.10;;;8.30;99.90;;;;;;5060016;28;20040;-72
2023/11/03 04:22:17;;;;;;;0.50;0.50;;;8.30;99.90;;;;;;5050970;28;20033;-72
2023/11/03 04:24:43;;;;;;;0.10;0.10;;;8.40;99.90;;;;;;5064863;28;20495;-72
2023/11/03 04:27:09;;;;;;;0.10;0.10;;;8.40;99.90;;;;;;5064956;28;20032;-72
2023/11/03 04:29:35;;;;;;;19.50;2.60;;;8.40;99.90;;;;;;5063578;28;20047;-72
2023/11/03 04:32:01;;;;;;;0.10;0.10;;;8.40;99.90;;;;;;5063296;28;20045;-72
2023/11/03 04:34:28;;;;;;;0.30;0.30;;;8.40;99.90;;;;;;5074987;28;20028;-72
2023/11/03 04:36:54;;;;;;;0.10;0.10;;;8.30;99.90;;;;;;5062527;28;20033;-72
2023/11/03 04:39:20;;;;;;;1.65;1.00;;;8.30;99.90;;;;;;5061569;28;20047;-72
2023/11/03 04:41:46;;;;;;;0.10;0.10;;;8.30;99.90;;;;;;5061423;28;20033;-72
2023/11/03 04:44:12;;;;;;;0.15;0.15;;;8.30;99.90;;;;;;5064192;28;20032;-73
2023/11/03 04:46:39;;;;;;;0.10;0.10;;;8.30;99.90;;;;;;5064035;28;20060;-72
2023/11/03 04:49:05;;;;;;;0.10;0.10;;;8.30;99.90;;;;;;5062511;28;20032;-72
2023/11/03 04:51:32;;;;;;;0.10;0.10;;;8.20;99.90;;;;;;5060840;28;20041;-72
2023/11/03 04:53:58;;;;;;;0.17;0.17;;;8.20;99.90;;;;;;5067205;28;20029;-72
2023/11/03 04:56:25;;;;;;;0.10;0.10;;;8.20;99.90;;;;;;5061561;28;20028;-73
2023/11/03 04:58:51;;;;;;;0.08;0.08;;;8.20;99.90;;;;;;5057914;28;20040;-73
2023/11/03 05:01:19;;;;;;;0.17;0.17;;;8.20;99.90;;;;;;5059429;28;20045;-73
2023/11/03 05:03:45;;;;;;;0.65;0.65;;;8.20;99.90;;;;;;5061887;28;20024;-73
2023/11/03 05:06:12;;;;;;;0.10;0.10;;;8.20;99.90;;;;;;5064669;28;20051;-74
2023/11/03 05:08:39;;;;;;;0.30;0.30;;;8.20;99.90;;;;;;5066076;28;20052;-73
2023/11/03 05:11:05;;;;;;;0.17;0.17;;;8.20;99.90;;;;;;5060082;28;20044;-74
2023/11/03 05:13:31;;;;;;;1.27;0.50;;;8.10;99.90;;;;;;5060084;28;20048;-74
2023/11/03 05:15:57;;;;;;;0.10;0.10;;;8.10;99.90;;;;;;5061844;28;20398;-74
2023/11/03 05:18:23;;;;;;;0.10;0.10;;;8.10;99.90;;;;;;5050400;28;20390;-73
2023/11/03 05:20:49;;;;;;;0.20;0.20;;;8.10;99.90;;;;;;5064156;28;20052;-73
2023/11/03 05:23:16;;;;;;;0.20;0.20;;;8.10;99.90;;;;;;5060606;28;20040;-74
2023/11/03 05:25:42;;;;;;;1.02;0.52;;;8.10;99.90;;;;;;5061946;28;20037;-74
2023/11/03 05:28:08;;;;;;;0.10;0.10;;;8.10;99.90;;;;;;5051875;28;20389;-73
2023/11/03 05:30:34;;;;;;;0.10;0.10;;;8.10;99.90;;;;;;5065464;28;20043;-74
2023/11/03 05:33:00;;;;;;;0.10;0.10;;;8.10;99.90;;;;;;5063679;28;20032;-74
2023/11/03 05:35:28;;;;;;;0.10;0.10;;;8.10;99.90;;;;;;5057714;28;20045;-73
2023/11/03 05:37:56;;;;;;;0.10;0.10;;;8.10;99.90;;;;;;5061121;28;20037;-73
2023/11/03 05:40:22;;;;;;;0.32;0.32;;;8.10;99.90;;;;;;5048583;28;20049;-74
2023/11/03 05:42:48;;;;;;;0.10;0.10;;;8.10;99.90;;;;;;5062501;28;20028;-73
2023/11/03 05:45:14;;;;;;;0.20;0.20;;;8.10;99.90;;;;;;5059675;28;20056;-73
2023/11/03 05:47:40;;;;;;;0.88;0.85;;;8.10;99.90;;;;;;5063827;28;20032;-73
2023/11/03 05:50:07;;;;;;;0.10;0.10;;;8.00;99.90;;;;;;5064232;28;20036;-73
2023/11/03 05:52:33;;;;;;;0.10;0.10;;;8.00;99.90;;;;;;5062204;28;20037;-73
2023/11/03 05:54:59;;;;;;;0.10;0.10;;;8.00;99.90;;;;;;5063310;28;20036;-72
2023/11/03 05:57:26;;;;;;;0.40;0.40;;;8.00;99.90;;;;;;5060107;28;20040;-73
2023/11/03 05:59:52;;;;;;;0.20;0.20;;;8.00;99.90;;;;;;5061308;28;20025;-72
2023/11/03 06:02:19;;;;;;;2.17;0.82;;;8.00;99.90;;;;;;5041277;28;20045;-72
2023/11/03 06:04:46;;;;;;;0.10;0.10;;;8.00;99.90;;;;;;5062031;28;20036;-72
2023/11/03 06:07:12;;;;;;;19.33;0.90;;;8.10;99.90;;;;;;5058272;28;20052;-74
2023/11/03 06:09:38;;;;;;;0.20;0.20;;;8.10;99.90;;;;;;5059522;28;20031;-72
2023/11/03 06:12:06;;;;;;;0.10;0.10;;;8.20;99.90;;;;;;5065711;28;20393;-72
2023/11/03 06:14:33;;;;;;;0.10;0.10;;;8.10;99.90;;;;;;5061770;28;20036;-72
2023/11/03 06:16:59;;;;;;;0.10;0.10;;;8.10;99.90;;;;;;5047308;28;20040;-72
2023/11/03 06:19:25;;;;;;;0.10;0.10;;;8.10;99.90;;;;;;5059393;28;20032;-72
2023/11/03 06:21:51;;;;;;;0.10;0.10;;;8.10;99.90;;;;;;5047509;28;20055;-73
2023/11/03 06:24:17;;;;;;;0.10;0.10;;;8.10;99.90;;;;;;5068993;28;20029;-74
2023/11/03 06:26:44;;;;;;;0.10;0.10;;;8.20;99.90;;;;;;5062647;28;20696;-74
2023/11/03 06:29:10;;;;;;;0.28;0.28;;;8.20;99.90;;;;;;5058263;28;20425;-74
2023/11/03 06:31:37;;;;;;;1.17;0.82;;;8.20;99.90;;;;;;5057352;28;20028;-74
2023/11/03 06:34:03;;;;;;;0.55;0.55;;;8.20;99.90;;;;;;5060146;28;20048;-75
2023/11/03 06:36:29;;;;;;;0.10;0.10;;;8.30;99.90;;;;;;5066114;28;20037;-74
2023/11/03 06:38:55;;;;;;;0.73;0.45;;;8.20;99.90;;;;;;5062434;28;20040;-74
2023/11/03 06:41:21;;;;;;;2.63;1.60;;;8.20;99.90;;;;;;5058765;28;20060;-73
2023/11/03 06:43:48;;;;;;;1.08;0.70;;;8.20;99.90;;;;;;5063377;28;20033;-74
2023/11/03 06:46:15;;;;;;;0.90;0.90;;;8.20;99.90;;;;;;5056423;28;20036;-74
2023/11/03 06:48:43;;;;;;;0.10;0.10;;;8.30;99.70;;;;;;5060545;28;20051;-74
2023/11/03 06:51:12;;;;;;;0.22;0.22;;;8.30;99.90;;;;;;5056371;28;20390;-73
2023/11/03 06:53:38;;;;;;;0.10;0.10;;;8.30;99.60;;;;;;5060942;28;20044;-73
2023/11/03 06:56:05;;;;;;;1.40;1.33;;;8.30;97.20;;;;;;5048390;28;20037;-74
2023/11/03 06:58:34;;;;;;;0.20;0.20;;;8.30;93.80;;;;;;5060013;28;20036;-74
2023/11/03 07:01:01;;;;;;;4.32;1.58;;;8.40;97.80;;;;;;5057008;28;20041;-73
2023/11/03 07:03:27;;;;;;;10.00;0.40;;;8.40;99.90;;;;;;5063672;28;20033;-73
2023/11/03 07:05:53;;;;;;;0.50;0.40;;;8.30;99.80;;;;;;5057103;28;20049;-73
2023/11/03 07:08:20;;;;;;;1.75;1.23;;;8.40;99.10;;;;;;5059339;28;20060;-74
2023/11/03 07:10:46;;;;;;;0.20;0.20;;;8.40;99.90;;;;;;5054373;28;20040;-73
2023/11/03 07:13:12;;;;;;;3.33;0.57;;;8.40;93.70;;;;;;5062749;28;20029;-75
2023/11/03 07:15:39;;;;;;;0.40;0.40;;;8.40;91.20;;;;;;5068424;28;20478;-74
2023/11/03 07:18:05;;;;;;;0.38;0.38;;;8.40;89.30;;;;;;5061632;28;20037;-74
2023/11/03 07:20:31;;;;;;;0.10;0.10;;;8.40;98.00;;;;;;5067656;28;20041;-73
2023/11/03 07:22:58;;;;;;;0.10;0.10;;;8.40;89.30;;;;;;5066298;28;20385;-74
2023/11/03 07:25:27;;;;;;;3.42;0.63;;;8.50;91.10;;;;;;5065452;28;20040;-74
2023/11/03 07:27:53;;;;;;;0.40;0.32;;;8.50;69.80;;;;;;5068692;28;20036;-73
2023/11/03 07:30:19;;;;;;;0.20;0.20;;;8.50;75.70;;;;;;5069731;28;20032;-74
2023/11/03 07:32:47;;;;;;;0.10;0.10;;;8.60;61.50;;;;;;5067035;28;20457;-73
2023/11/03 07:35:13;;;;;;;0.10;0.10;;;8.60;59.60;;;;;;5062756;28;20397;-73
2023/11/03 07:37:40;;;;;;;0.10;0.10;;;8.70;63.80;;;;;;5066053;28;20033;-73
2023/11/03 07:40:07;;;;;;;0.10;0.10;;;8.70;69.10;;;;;;5064785;28;20040;-73
2023/11/03 07:42:34;;;;;;;0.10;0.10;;;8.70;45.90;;;;;;5051535;28;20314;-76
2023/11/03 07:45:00;;;;;;;0.10;0.10;;;8.80;35.60;;;;;;5063224;28;20524;-76
2023/11/03 07:47:26;;;;;;;0.10;0.10;;;8.70;38.40;;;;;;5063193;28;20029;-76
2023/11/03 07:49:54;;;;;;;0.17;0.17;;;8.80;24.10;;;;;;5059335;28;20032;-76
2023/11/03 07:52:20;;;;;;;0.73;0.32;;;8.70;23.00;;;;;;5065366;28;20040;-76
2023/11/03 07:54:46;;;;;;;0.10;0.10;;;8.80;16.90;;;;;;5060269;28;20508;-76
2023/11/03 07:57:13;;;;;;;0.20;0.20;;;8.70;21.00;;;;;;5067507;28;20462;-76
2023/11/03 07:59:42;;;;;;;0.10;0.10;;;8.80;27.30;;;;;;5062697;28;20035;-76
2023/11/03 08:02:09;;;;;;;0.10;0.10;;;8.80;30.00;;;;;;5060694;28;20041;-76
2023/11/03 08:04:36;;;;;;;0.20;0.20;;;8.80;40.10;;;;;;5060805;28;20028;-76
2023/11/03 08:07:02;;;;;;;0.10;0.10;;;8.80;50.00;;;;;;5061620;28;20039;-76
2023/11/03 08:09:28;;;;;;;0.30;0.30;;;8.80;42.30;;;;;;5044612;28;20044;-75
2023/11/03 08:11:55;;;;;;;0.10;0.10;;;8.90;43.90;;;;;;5069046;28;20048;-76
2023/11/03 08:14:21;;;;;;;0.55;0.45;;;8.90;29.30;;;;;;5060247;28;20033;-76
2023/11/03 08:16:48;;;;;;;0.20;0.20;;;8.90;35.00;;;;;;5061147;28;20024;-76
2023/11/03 08:19:14;;;;;;;0.10;0.10;;;8.80;33.80;;;;;;5062375;28;20037;-76
2023/11/03 08:21:44;;;;;;;0.10;0.10;;;8.80;43.40;;;;;;5049015;28;20033;-75
2023/11/03 08:24:11;;;;;;;0.20;0.20;;;8.90;49.20;;;;;;5049714;28;20052;-75
2023/11/03 08:26:41;;;;;;;0.10;0.10;;;8.90;64.20;;;;;;5048739;28;20029;-76
2023/11/03 08:29:11;;;;;;;0.10;0.10;;;9.00;49.00;;;;;;5063317;28;20462;-76
2023/11/03 08:31:37;;;;;;;0.30;0.30;;;9.00;50.00;;;;;;5052657;28;20045;-75
2023/11/03 08:34:04;;;;;;;0.10;0.10;;;9.00;29.80;;;;;;5065711;28;20040;-76
2023/11/03 08:36:34;;;;;;;0.10;0.10;;;9.00;40.30;;;;;;5065748;28;20029;-75
2023/11/03 08:39:00;;;;;;;0.10;0.10;;;9.00;45.50;;;;;;5052123;28;20405;-75
2023/11/03 08:41:26;;;;;;;0.47;0.47;;;9.10;40.50;;;;;;5062779;28;20033;-75
2023/11/03 08:43:53;;;;;;;0.10;0.10;;;9.10;37.90;;;;;;5067354;28;20025;-75
2023/11/03 08:46:20;;;;;;;0.10;0.10;;;9.10;38.20;;;;;;5065083;28;20033;-75
2023/11/03 08:48:46;;;;;;;0.10;0.10;;;9.30;43.90;;;;;;5061404;28;20041;-75
2023/11/03 08:51:15;;;;;;;0.13;0.13;;;9.30;12.80;;;;;;5053541;28;20047;-75
2023/11/03 08:53:43;;;;;;;0.55;0.45;;;9.40;13.30;;;;;;5062832;28;20032;-75
2023/11/03 08:56:14;;;;;;;0.80;0.60;;;9.40;16.00;;;;;;5061083;28;20052;-75
2023/11/03 08:58:40;;;;;;;5.07;1.35;;;9.40;15.60;;;;;;5061242;28;20124;-75
2023/11/03 09:01:07;;;;;;;0.10;0.10;;;9.40;13.50;;;;;;5063233;28;20043;-75
2023/11/03 09:03:34;;;;;;;0.20;0.17;;;9.40;7.60;;;;;;5063693;28;20037;-75
2023/11/03 09:06:00;;;;;;;0.10;0.10;;;9.50;7.10;;;;;;5062914;28;20056;-76
2023/11/03 09:08:27;;;;;;;0.65;0.65;;;9.50;1.00;;;;;;5060009;28;20504;-75
2023/11/03 09:10:53;;;;;;;1.23;0.70;;;9.50;1.00;;;;;;5059402;28;20492;-75
2023/11/03 09:13:20;;;;;;;0.95;0.95;;;9.50;1.00;;;;;;5059474;28;20356;-75
2023/11/03 09:15:48;;;;;;;0.77;0.68;;;9.60;6.50;;;;;;5069015;28;20037;-76
2023/11/03 09:18:15;;;;;;;0.10;0.10;;;9.70;1.00;;;;;;5048037;28;20044;-75
2023/11/03 09:20:42;;;;;;;0.10;0.10;;;9.60;1.00;;;;;;5060503;28;20029;-75
2023/11/03 09:23:11;;;;;;;0.10;0.10;;;9.70;1.00;;;;;;5058679;28;20040;-75
2023/11/03 09:25:37;;;;;;;0.20;0.20;;;9.70;1.00;;;;;;5044900;28;20037;-76
2023/11/03 09:28:04;;;;;;;0.40;0.40;;;9.80;1.00;;;;;;5066386;28;20044;-74
2023/11/03 09:30:30;;;;;;;0.40;0.40;;;9.90;1.00;;;;;;5063625;28;20043;-74
2023/11/03 09:32:56;;;;;;;0.63;0.63;;;9.90;1.00;;;;;;5059510;28;20039;-75
2023/11/03 09:35:22;;;;;;;0.65;0.40;;;10.00;1.00;;;;;;5061229;28;20036;-74
2023/11/03 09:37:49;;;;;;;0.22;0.22;;;10.10;99.90;;;;;;5064632;28;20032;-75
2023/11/03 09:40:16;;;;;;;0.10;0.10;;;10.20;99.90;;;;;;5051169;28;20044;-75
2023/11/03 09:42:44;;;;;;;0.10;0.10;;;10.30;99.90;;;;;;5062505;28;20041;-75
2023/11/03 09:45:15;;;;;;;0.25;0.25;;;10.40;99.90;;;;;;5059838;28;20193;-74
2023/11/03 09:47:42;;;;;;;0.10;0.10;;;10.40;99.90;;;;;;5058452;28;20024;-74
2023/11/03 09:50:10;;;;;;;0.45;0.45;;;10.30;99.90;;;;;;5070944;28;20078;-75
2023/11/03 09:52:49;;;;;;;4.13;0.32;;;10.20;99.90;;;;;;5071564;28;20032;-75
2023/11/03 09:55:21;;;;;;;0.90;0.28;;;10.10;99.90;;;;;;5064087;28;20037;-76
2023/11/03 09:57:49;;;;;;;0.40;0.40;;;10.10;99.90;;;;;;5042799;28;20412;-74
2023/11/03 10:00:19;;;;;;;2.22;0.82;;;10.10;99.90;;;;;;5062098;28;20033;-74
2023/11/03 10:02:48;;;;;;;0.40;0.40;;;10.10;99.90;;;;;;5064165;28;20041;-74
2023/11/03 10:05:16;;;;;;;0.32;0.32;;;10.20;99.90;;;;;;5072619;28;20025;-76
2023/11/03 10:08:02;;;;;;;0.20;0.20;;;10.20;99.90;;;;;;5059892;28;20037;-75
2023/11/03 10:10:29;;;;;;;0.10;0.10;;;10.20;99.90;;;;;;5060686;28;20036;-77
2023/11/03 10:13:00;;;;;;;0.65;0.45;;;10.20;99.90;;;;;;5039737;28;20137;-77
2023/11/03 10:15:26;;;;;;;0.10;0.10;;;10.20;99.90;;;;;;5047537;28;20037;-76
2023/11/03 10:17:53;;;;;;;1.40;1.30;;;10.20;99.90;;;;;;5039530;28;20034;-76
2023/11/03 10:20:20;;;;;;;0.10;0.10;;;10.10;99.90;;;;;;5047484;28;20470;-77
2023/11/03 10:22:47;;;;;;;2.65;1.00;;;10.10;99.90;;;;;;5038791;28;20039;-76
2023/11/03 10:25:18;;;;;;;0.20;0.20;;;10.00;99.90;;;;;;5043295;28;20041;-73
2023/11/03 10:27:51;;;;;;;;;;;9.90;99.90;;;;;;5038096;28;20037;-75
2023/11/03 10:30:17;;;;;;;1.80;0.38;;;10.00;99.90;;;;;;5042338;28;20289;-74
2023/11/03 10:32:44;;;;;;;0.25;0.25;;;10.00;99.90;;;;;;5041786;28;20597;-76
2023/11/03 10:35:12;;;;;;;0.20;0.20;;;10.10;99.90;;;;;;5039475;28;20043;-76
2023/11/03 10:37:39;;;;;;;0.10;0.10;;;10.10;99.90;;;;;;5039672;28;20037;-76
2023/11/03 10:40:12;;;;;;;1.45;1.33;;;10.10;99.90;;;;;;5038046;28;20046;-76
2023/11/03 10:42:51;;;;;;;0.32;0.32;;;10.10;99.90;;;;;;5033963;28;20041;-75
2023/11/03 10:45:19;;;;;;;0.57;0.50;;;10.20;99.90;;;;;;5041486;28;20038;-75
2023/11/03 10:48:08;;;;;;;0.17;0.17;;;10.10;99.90;;;;;;5041314;28;20029;-76
2023/11/03 10:50:35;;;;;;;0.20;0.17;;;10.20;99.90;;;;;;5040832;28;20033;-75
2023/11/03 10:53:19;;;;;;;0.10;0.10;;;10.10;99.90;;;;;;5042232;28;20041;-75
2023/11/03 10:56:07;;;;;;;0.10;0.10;;;10.20;99.90;;;;;;5060099;28;20048;-75
2023/11/03 10:58:34;;;;;;;0.82;0.82;;;10.40;99.90;;;;;;5042032;28;20041;-75
2023/11/03 11:01:18;;;;;;;0.52;0.52;;;10.50;99.90;;;;;;5047409;28;20386;-75
2023/11/03 11:04:12;;;;;;;2.03;0.40;;;10.60;86.50;;;;;;5041874;28;20385;-75
2023/11/03 11:06:43;;;;;;;0.10;0.10;;;10.60;80.00;;;;;;5043240;28;20096;-75
2023/11/03 11:09:40;;;;;;;0.38;0.30;;;10.50;46.40;;;;;;5063331;28;20091;-75
2023/11/03 11:12:07;;;;;;;0.43;0.35;;;10.40;40.00;;;;;;5066707;28;20029;-74
2023/11/03 11:14:38;;;;;;;0.70;0.70;;;10.40;43.40;;;;;;5064313;28;20036;-74
2023/11/03 11:17:15;;;;;;;;;;;10.50;14.40;;;;;;5064053;28;20036;-76
2023/11/03 11:19:50;;;;;;;0.30;0.30;;;10.60;1.00;;;;;;5061650;28;19908;-76
2023/11/03 11:22:22;;;;;;;0.40;0.40;;;10.60;1.00;;;;;;5062037;28;20952;-75
2023/11/03 11:24:51;;;;;;;0.10;0.10;;;10.70;1.00;;;;;;5068632;28;20025;-75
2023/11/03 11:27:23;;;;;;;0.10;0.10;;;10.80;1.00;;;;;;5064093;28;20135;-75
2023/11/03 11:30:00;;;;;;;22.63;1.80;;;10.90;1.00;;;;;;5062756;28;20051;-75
2023/11/03 11:32:27;;;;;;;0.10;0.10;;;10.80;1.00;;;;;;5063622;28;20045;-74
2023/11/03 11:34:55;;;;;;;0.10;0.10;;;11.00;1.00;;;;;;5063478;28;20032;-75
2023/11/03 11:37:27;;;;;;;0.28;0.28;;;11.10;1.00;;;;;;5067714;28;20035;-75
2023/11/03 11:40:02;;;;;;;0.10;0.10;;;11.20;1.00;;;;;;5065826;28;20032;-75
2023/11/03 11:42:37;;;;;;;0.20;0.20;;;11.10;1.00;;;;;;5064074;28;20036;-75
2023/11/03 11:45:08;;;;;;;0.22;0.22;;;11.00;1.00;;;;;;5060887;28;20579;-76
2023/11/03 11:47:36;;;;;;;0.10;0.10;;;10.90;1.00;;;;;;5059964;28;20045;-73
2023/11/03 11:50:05;;;;;;;0.10;0.10;;;10.90;1.00;;;;;;5066483;28;20484;-74
2023/11/03 11:52:31;;;;;;;0.10;0.10;;;11.00;1.00;;;;;;5066428;28;20036;-75
2023/11/03 11:54:58;;;;;;;0.10;0.10;;;11.10;99.90;;;;;;5065557;28;20469;-75
2023/11/03 11:57:26;;;;;;;0.20;0.20;;;11.00;99.90;;;;;;5065274;28;20037;-75
2023/11/03 11:59:53;;;;;;;0.10;0.10;;;11.10;99.90;;;;;;5053783;28;20044;-74
2023/11/03 12:02:21;;;;;;;0.70;0.22;;;11.30;99.90;;;;;;5061738;28;20448;-74
2023/11/03 12:04:51;;;;;;;1.20;0.40;;;11.50;99.90;;;;;;5061138;28;20033;-74
2023/11/03 12:07:25;;;;;;;0.10;0.10;;;11.60;99.90;;;;;;5070759;28;20493;-74
2023/11/03 12:09:53;;;;;;;0.30;0.30;;;11.50;99.90;;;;;;5061403;28;20401;-75
2023/11/03 12:12:29;;;;;;;0.32;0.32;;;11.60;99.90;;;;;;5061166;28;20032;-74
2023/11/03 12:14:56;;;;;;;0.40;0.40;;;11.40;99.90;;;;;;5062623;28;20470;-74
2023/11/03 12:17:23;;;;;;;0.43;0.38;;;11.50;99.90;;;;;;5068801;28;20550;-74
2023/11/03 12:19:51;;;;;;;0.20;0.20;;;11.40;99.90;;;;;;5054567;28;20033;-74
2023/11/03 12:22:25;;;;;;;0.10;0.10;;;11.40;99.90;;;;;;5060038;28;20044;-74
2023/11/03 12:24:54;;;;;;;0.10;0.10;;;11.30;99.90;;;;;;5062186;28;20052;-74
2023/11/03 12:27:24;;;;;;;0.10;0.10;;;11.30;99.90;;;;;;5058597;28;20037;-74
2023/11/03 12:30:00;;;;;;;0.75;0.63;;;11.20;99.90;;;;;;5069753;28;20028;-74
2023/11/03 12:32:27;;;;;;;0.10;0.10;;;11.10;99.90;;;;;;5068363;28;20063;-74
2023/11/03 12:34:55;;;;;;;0.80;0.73;;;11.10;99.90;;;;;;5059892;28;20029;-74
2023/11/03 12:37:22;;;;;;;0.10;0.10;;;11.10;99.90;;;;;;5044735;28;20485;-73
2023/11/03 12:39:56;;;;;;;0.10;0.10;;;11.10;99.90;;;;;;5062953;28;20376;-74
2023/11/03 12:42:23;;;;;;;0.10;0.10;;;11.20;99.90;;;;;;5048926;28;20673;-73
2023/11/03 12:45:00;;;;;;;0.45;0.45;;;11.20;99.90;;;;;;5063073;28;20032;-73
2023/11/03 12:47:49;;;;;;;0.10;0.10;;;11.10;99.90;;;;;;5048959;28;20036;-74
2023/11/03 12:50:17;;;;;;;0.10;0.10;;;11.10;99.90;;;;;;5059420;28;20032;-73
2023/11/03 12:52:58;;;;;;;0.10;0.10;;;11.10;99.90;;;;;;5039367;28;20461;-75
2023/11/03 12:55:26;;;;;;;0.10;0.10;;;11.10;99.90;;;;;;5043036;28;20040;-75
2023/11/03 12:57:54;;;;;;;0.10;0.10;;;11.10;99.90;;;;;;5064541;28;20025;-74
2023/11/03 13:00:24;;;;;;;1.98;0.75;;;11.10;99.90;;;;;;5045983;28;20040;-74